Marine On Saint Croix, MN (55047)

8:45 AM CDT on September 02, 2015 (GMT -0500)
Two Rivers Observatory | | Change Station
CLOSE
Current Station
Personal Weather Station
Location: Somerset, WI
Elevation: 945 ft
Nearby Weather Stations

Elev 945 ft 45.17 °N, 92.69 °W | Updated 11 minutes ago

Rain
Rain
69.8 °F
Feels Like 69.8 °F
N
1.7
Wind Variable Wind from SSE

Today
High -- | Low -- °F
--% Chance of Precip.
Yesterday
High -- | Low -- °F
Precip. -- in
6:34 AM 7:47 PM
Waning Gibbous, 80% visible
Pressure 29.97 in
Visibility 10.0 miles
Clouds Overcast 4100 ft
Dew Point 69 °F
Humidity 98%
Rainfall 0.35 in
Snow Depth Not available.
UV 0 out of 12
Pollen 9.20 out of 12
Air Quality Not available.
Flu Activity Not available.
METAR KOEO 021335Z AUTO 11007KT 10SM OVC041 22/22 A2997 RMK AO2 T02150215
Pressure 29.97 in
Visibility 10.0 miles
Clouds Overcast 4100 ft
Dew Point 69 °F
Humidity 98%
Rainfall 0.35 in
Snow Depth Not available.
UV 0 out of 12
Pollen 9.20 out of 12
Air Quality Not available.
Flu Activity Not available.
METAR KOEO 021335Z AUTO 11007KT 10SM OVC041 22/22 A2997 RMK AO2 T02150215

10-Day Weather Forecast

×

Almanac

Astronomy

Sep. 02, 2015 Rise Set
Actual Time
Civil Twilight
Nautical Twilight
Astronomical Twilight
Moon
Length of Visible Light
Length of Day
Tomorrow will be .
, % of the Moon is Illuminated

Today's Extremes

State Highs State Lows

Community

WunderPhotos

Upload Photos

1,851,754 photos uploaded!

WunderBlogs® & News

Nearby

Air Quality

  Air Quality AQ Index Pollutant
Not available.

Snow Depth

Station Depth Elevation

Earthquake Activity

City Distance Mag. Time & Date
Minimum magnitude displayed is 2.5.

Coastal Water Temperatures

Place Temperature

Stations

Nearby Weather Stations

Station Location Temp. Windchill Dew Point Humidity Wind Precip. Elev Updated Type